KBDG

Blanding Municipal Airport

Blanding, Utah, USA
METAR KBDG 092135Z AUTO 16004KT 10SM 07/00 A3047 RMK AO1 T00651003
Observed Flight Rules
Dec-9 @ 21:35 UTC (14 minutes ago)
Wind Visibility
160° at 4 knots 10 miles
Temperatures Readings
Current 7°C / 45°F
Dewpoint -0°C / 32°F
Humidity 61%
Altimeter 30.47" Hg
Pressure 1032 hPa
Elevation 1788
METAR KBDG 092135Z AUTO 16004KT 10SM 07/00 A3047 RMK AO1 T00651003
Observed Flight Rules
Dec-9 @ 21:35 UTC
(14 minutes ago)
Wind Visibility
160° at 4 knots 10 miles
Temperature Dewpoint
7°C / 45°F -0°C / 32°F
Humidity Altimeter Pressure
61% 30.47" Hg 1032 hPa